CPF7 weather

Southampton Airport
Southampton, Ontario, Canada

Public forecast

Using degrees Celsius for public forecast. Weather courtesy of forecast.io.

METAR (pilot weather report)

Closest report is Wiarton Airport, 18.0 nm (33.3 km) NNE. Retrieved 2019/07/19 14:00 UTC (26 minutes ago):

CYVV 191400Z 24013KT 15SM VCSH FEW012 FEW035 BKN070 OVC180 25/23 A2980 RMK SF1SC2AC3AS3 SF TR SLP088 DENSITY ALT 2200FT

TAF (pilot weather forecast)

Closest forecast is Wiarton Airport, 18.0 nm (33.3 km) NNE. Retrieved 2019/07/19 14:00 UTC (26 minutes ago):

TAF CYVV 191339Z 1914/1923 24010G20KT P6SM BKN025 BKN150 TEMPO 1914/1917 P6SM -SHRA BKN020 BKN040 FM191700 26012G22KT P6SM -SHRA OVC030 TEMPO 1917/1923 4SM -SHRA BR OVC020 PROB30 1917/1923 VRB15G30KT 1SM +TSRA BR BKN007 OVC020CB RMK NXT FCST BY 192000Z